Time;durP1;ratioP1;P1;durP2;ratioP2;P2;SDS_P1;SDS_P2;PMS_P1;PMS_P2;Temp;Humidity;BMP_temperature;BMP_pressure;BME280_temperature;BME280_humidity;BME280_pressure;Samples;Min_cycle;Max_cycle;Signal;HPM_P1;HPM_P2
2021/10/27 00:02:06;;;;;;;;;3.25;3.25;;;;;23.29;44.65;102251.47;5054779;28;45375;-66
2021/10/27 00:04:31;;;;;;;;;4.00;4.00;;;;;23.28;43.88;102249.00;5054377;28;45603;-66
2021/10/27 00:06:57;;;;;;;;;3.75;3.75;;;;;23.26;43.97;102246.47;5055530;28;45868;-66
2021/10/27 00:09:22;;;;;;;;;3.00;3.00;;;;;23.25;43.93;102250.13;5054402;28;45403;-66
2021/10/27 00:11:48;;;;;;;;;6.00;5.00;;;;;23.25;44.38;102257.25;5054044;28;45380;-66
2021/10/27 00:14:13;;;;;;;;;4.75;4.75;;;;;23.23;44.49;102254.78;5056020;28;45578;-66
2021/10/27 00:16:38;;;;;;;;;4.00;4.00;;;;;23.12;44.18;102239.91;5038585;28;45974;-65
2021/10/27 00:19:04;;;;;;;;;3.25;3.00;;;;;23.22;44.29;102252.25;5055432;28;45490;-66
2021/10/27 00:21:29;;;;;;;;;5.00;3.00;;;;;23.20;44.25;102255.06;5054866;28;45378;-66
2021/10/27 00:23:55;;;;;;;;;4.00;3.00;;;;;23.21;44.14;102261.22;5054646;28;45330;-66
2021/10/27 00:26:20;;;;;;;;;3.00;3.00;;;;;23.12;44.20;102242.56;5054276;28;45533;-66
2021/10/27 00:28:46;;;;;;;;;2.50;2.50;;;;;23.22;43.92;102262.88;5054825;28;45360;-66
2021/10/27 00:31:11;;;;;;;;;4.00;3.00;;;;;23.07;43.92;102232.41;5057996;28;46108;-66
2021/10/27 00:33:37;;;;;;;;;3.25;3.25;;;;;23.22;43.93;102266.38;5058550;28;45286;-66
2021/10/27 00:36:04;;;;;;;;;3.25;3.25;;;;;23.11;43.59;102254.16;5057924;28;46616;-66
2021/10/27 00:38:29;;;;;;;;;4.50;3.50;;;;;23.22;43.74;102257.56;5058230;28;45518;-66
2021/10/27 00:40:54;;;;;;;;;3.25;3.25;;;;;23.21;43.78;102256.75;5057846;28;45390;-66
2021/10/27 00:43:20;;;;;;;;;4.50;3.00;;;;;23.22;43.49;102257.56;5058332;28;45280;-66
2021/10/27 00:45:45;;;;;;;;;4.25;3.00;;;;;23.22;43.48;102255.75;5058328;28;46229;-66
2021/10/27 00:48:11;;;;;;;;;5.00;3.75;;;;;23.14;43.38;102240.59;5057802;28;45400;-66
2021/10/27 00:50:36;;;;;;;;;4.25;4.00;;;;;23.22;43.91;102253.09;5057846;28;45296;-66
2021/10/27 00:53:01;;;;;;;;;6.25;4.00;;;;;23.22;43.91;102249.59;5058011;28;45403;-66
2021/10/27 00:55:27;;;;;;;;;1.75;1.50;;;;;23.22;43.51;102262.88;5057625;28;45415;-65
2021/10/27 00:57:54;;;;;;;;;3.50;3.50;;;;;23.19;43.62;102248.09;5057231;28;45482;-66
2021/10/27 01:00:19;;;;;;;;;5.75;4.00;;;;;23.21;43.22;102263.88;5057967;28;45488;-66
2021/10/27 01:02:46;;;;;;;;;4.00;4.00;;;;;23.20;43.77;102264.84;5057675;28;45399;-66
2021/10/27 01:05:12;;;;;;;;;3.00;3.00;;;;;23.18;43.26;102268.53;5057689;28;47224;-66
2021/10/27 01:07:38;;;;;;;;;2.75;2.75;;;;;23.19;43.64;102266.66;5057925;28;45276;-65
2021/10/27 01:10:04;;;;;;;;;4.25;3.00;;;;;23.17;43.12;102274.81;5058201;28;45359;-66
2021/10/27 01:12:30;;;;;;;;;3.00;3.00;;;;;23.06;43.44;102251.13;5057601;28;45262;-66
2021/10/27 01:14:55;;;;;;;;;4.25;4.00;;;;;23.16;43.52;102267.81;5057216;28;46108;-66
2021/10/27 01:17:20;;;;;;;;;3.25;3.00;;;;;23.14;43.89;102267.13;5057566;28;45381;-65
2021/10/27 01:19:55;;;;;;;;;3.00;3.00;;;;;23.13;43.84;102260.19;5057804;28;45359;-64
2021/10/27 01:22:27;;;;;;;;;3.50;3.50;;;;;23.13;43.30;102265.50;5057809;28;45353;-65
2021/10/27 01:24:53;;;;;;;;;3.75;3.75;;;;;23.13;43.30;102262.84;5055594;28;45373;-66
2021/10/27 01:27:19;;;;;;;;;4.50;4.00;;;;;23.06;43.35;102248.47;5057304;28;45237;-64
2021/10/27 01:29:45;;;;;;;;;4.00;3.50;;;;;23.10;43.31;102251.69;5057457;28;45489;-65
2021/10/27 01:32:21;;;;;;;;;4.50;4.50;;;;;23.09;43.73;102255.31;5057394;28;45502;-65
2021/10/27 01:34:47;;;;;;;;;4.75;3.00;;;;;23.10;43.71;102255.16;5042153;28;46232;-66
2021/10/27 01:37:12;;;;;;;;;3.00;3.00;;;;;23.11;43.83;102266.63;5057672;28;45598;-66
2021/10/27 01:39:37;;;;;;;;;5.25;4.25;;;;;23.10;43.83;102265.78;5057140;28;45391;-64
2021/10/27 01:42:03;;;;;;;;;4.50;3.25;;;;;23.08;43.42;102257.16;5055447;28;45482;-65
2021/10/27 01:44:28;;;;;;;;;3.00;3.00;;;;;23.10;43.23;102252.50;5056777;28;46055;-66
2021/10/27 01:46:54;;;;;;;;;5.00;4.00;;;;;23.10;43.71;102252.50;5057063;28;45514;-66
2021/10/27 01:49:19;;;;;;;;;4.00;4.00;;;;;22.98;43.45;102233.31;5056080;28;45767;-65
2021/10/27 01:51:45;;;;;;;;;3.25;3.25;;;;;23.09;43.33;102245.53;5057653;28;45482;-65
2021/10/27 01:54:11;;;;;;;;;4.00;4.00;;;;;22.97;43.63;102218.41;5056560;28;45492;-65
2021/10/27 01:56:36;;;;;;;;;6.00;4.75;;;;;23.06;43.73;102227.25;5056931;28;45477;-65
2021/10/27 01:59:02;;;;;;;;;2.75;2.75;;;;;23.07;43.84;102235.06;5057129;28;45387;-65
2021/10/27 02:01:28;;;;;;;;;4.50;3.00;;;;;23.08;43.57;102233.25;5057183;28;45294;-65
2021/10/27 02:03:53;;;;;;;;;2.75;2.75;;;;;23.00;43.25;102231.38;5057207;28;45306;-65
2021/10/27 02:06:19;;;;;;;;;3.25;3.25;;;;;23.07;43.38;102242.19;5055216;28;49736;-65
2021/10/27 02:08:44;;;;;;;;;3.00;3.00;;;;;23.03;43.17;102225.72;5056585;28;45501;-65
2021/10/27 02:11:10;;;;;;;;;3.75;3.75;;;;;23.03;43.26;102224.91;5056865;28;45390;-65
2021/10/27 02:13:35;;;;;;;;;2.00;2.00;;;;;23.10;43.44;102230.44;5056630;28;47129;-65
2021/10/27 02:16:00;;;;;;;;;5.00;4.00;;;;;23.10;43.68;102239.25;5057331;28;45261;-65
2021/10/27 02:18:26;;;;;;;;;4.50;3.25;;;;;23.08;43.15;102243.88;5056714;28;45300;-65
2021/10/27 02:20:52;;;;;;;;;3.50;3.50;;;;;23.11;43.50;102250.69;5056716;28;45584;-65
2021/10/27 02:23:17;;;;;;;;;4.00;4.00;;;;;23.10;42.95;102246.38;5055633;28;45494;-66
2021/10/27 02:25:43;;;;;;;;;8.00;4.00;;;;;23.11;43.39;102250.69;5056474;28;45561;-65
2021/10/27 02:28:08;;;;;;;;;2.25;2.25;;;;;23.11;42.91;102240.09;5057443;28;45347;-65
2021/10/27 02:30:34;;;;;;;;;4.75;3.25;;;;;23.10;43.51;102233.09;5056255;28;45573;-65
2021/10/27 02:33:02;;;;;;;;;6.00;3.75;;;;;23.11;43.50;102238.25;5056188;28;47166;-65
2021/10/27 02:35:27;;;;;;;;;4.50;3.00;;;;;23.11;43.22;102234.78;5055568;28;45498;-66
2021/10/27 02:37:53;;;;;;;;;8.50;3.00;;;;;23.11;43.35;102238.25;5056058;28;45398;-66
2021/10/27 02:40:18;;;;;;;;;2.00;2.00;;;;;23.07;42.93;102231.56;5056572;28;45268;-66
2021/10/27 02:42:44;;;;;;;;;5.00;3.00;;;;;23.09;43.34;102231.41;5056591;28;46965;-65
2021/10/27 02:45:11;;;;;;;;;6.00;3.50;;;;;23.06;43.05;102224.59;5055884;28;45386;-67
2021/10/27 02:47:38;;;;;;;;;3.25;3.25;;;;;23.09;42.79;102226.09;5056287;28;45469;-65
2021/10/27 02:50:04;;;;;;;;;3.50;2.00;;;;;22.94;43.17;102206.28;5056173;28;45393;-66
2021/10/27 02:52:30;;;;;;;;;2.25;2.25;;;;;23.07;43.18;102231.56;5055334;28;47151;-65
2021/10/27 02:54:56;;;;;;;;;3.25;3.25;;;;;23.07;42.98;102234.22;5053658;28;45450;-66
2021/10/27 02:57:21;;;;;;;;;3.25;2.75;;;;;23.07;42.88;102234.22;5056285;28;45428;-65
2021/10/27 02:59:47;;;;;;;;;3.00;3.00;;;;;23.07;43.42;102234.22;5055909;28;45237;-65
2021/10/27 03:02:12;;;;;;;;;4.00;4.00;;;;;22.77;43.67;102185.91;5055903;28;45349;-65
2021/10/27 03:04:37;;;;;;;;;3.50;3.50;;;;;22.99;42.83;102211.09;5056096;28;45461;-65
2021/10/27 03:07:03;;;;;;;;;3.00;3.00;;;;;23.06;43.02;102224.59;5056070;28;45330;-64
2021/10/27 03:09:28;;;;;;;;;4.25;3.25;;;;;23.04;43.03;102227.41;5055855;28;45435;-66
2021/10/27 03:11:53;;;;;;;;;2.75;2.75;;;;;23.00;43.43;102223.41;5055468;28;45307;-64
2021/10/27 03:14:20;;;;;;;;;2.00;2.00;;;;;22.96;43.54;102216.72;5054282;28;45490;-66
2021/10/27 03:16:46;;;;;;;;;3.50;3.50;;;;;23.00;43.48;102217.25;5056180;28;45469;-64
2021/10/27 03:19:11;;;;;;;;;3.00;3.00;;;;;22.97;43.23;102210.44;5056012;28;45428;-64
2021/10/27 03:21:37;;;;;;;;;4.50;4.50;;;;;23.03;43.11;102225.72;5053710;28;45483;-66
2021/10/27 03:24:03;;;;;;;;;2.75;2.75;;;;;23.04;43.12;102218.59;5055102;28;45490;-66
2021/10/27 03:26:28;;;;;;;;;3.75;3.75;;;;;23.03;42.92;102217.75;5055663;28;47200;-66
2021/10/27 03:28:53;;;;;;;;;3.00;3.00;;;;;23.03;42.85;102219.63;5071309;28;45490;-65
2021/10/27 03:31:19;;;;;;;;;3.75;3.75;;;;;22.93;43.36;102203.75;5055554;28;46278;-64
2021/10/27 03:33:44;;;;;;;;;3.50;3.50;;;;;23.04;42.90;102226.56;5056001;28;45505;-65
2021/10/27 03:36:10;;;;;;;;;2.25;2.25;;;;;23.02;42.99;102221.44;5055331;28;45552;-65
2021/10/27 03:38:36;;;;;;;;;4.00;3.25;;;;;23.04;42.99;102230.06;5055432;28;45478;-66
2021/10/27 03:41:01;;;;;;;;;5.75;2.00;;;;;23.03;42.89;102228.38;5055207;28;46038;-66
2021/10/27 03:43:27;;;;;;;;;4.25;3.00;;;;;23.04;43.28;102224.75;5055312;28;45234;-66
2021/10/27 03:45:52;;;;;;;;;5.00;3.50;;;;;23.04;43.37;102224.75;5055972;28;45399;-66
2021/10/27 03:48:18;;;;;;;;;4.00;4.00;;;;;23.05;42.92;102229.09;5055316;28;45424;-66
2021/10/27 03:50:44;;;;;;;;;4.00;4.00;;;;;22.95;42.81;102213.22;5054607;28;47108;-65
2021/10/27 03:53:09;;;;;;;;;4.50;4.50;;;;;23.06;42.49;102240.50;5054662;28;45435;-66
2021/10/27 03:55:35;;;;;;;;;6.00;4.00;;;;;23.01;43.20;102232.19;5053982;28;45482;-66
2021/10/27 03:58:01;;;;;;;;;3.25;3.25;;;;;23.05;42.67;102237.06;5055724;28;45460;-66
2021/10/27 04:00:26;;;;;;;;;2.00;2.00;;;;;23.06;43.19;102240.50;5054858;28;46939;-66
2021/10/27 04:02:51;;;;;;;;;3.50;3.50;;;;;23.06;42.67;102232.56;5053430;28;45308;-66
2021/10/27 04:05:18;;;;;;;;;4.00;4.00;;;;;23.06;42.96;102230.75;5054477;28;45477;-66
2021/10/27 04:07:43;;;;;;;;;4.00;4.00;;;;;23.06;43.10;102232.56;5055062;28;45281;-66
2021/10/27 04:10:12;;;;;;;;;4.00;4.00;;;;;23.06;43.25;102240.50;5055648;28;45346;-66
2021/10/27 04:12:39;;;;;;;;;3.00;3.00;;;;;23.04;42.82;102230.06;5054873;28;45321;-66
2021/10/27 04:15:07;;;;;;;;;4.50;2.75;;;;;23.05;42.83;102229.09;5054839;28;45500;-66
2021/10/27 04:17:34;;;;;;;;;3.50;2.25;;;;;23.05;42.86;102230.91;5054596;28;45424;-65
2021/10/27 04:19:59;;;;;;;;;3.50;3.50;;;;;22.99;42.95;102227.03;5054653;28;45602;-66
2021/10/27 04:22:25;;;;;;;;;3.00;3.00;;;;;23.04;42.71;102246.00;5054876;28;45566;-66
2021/10/27 04:24:50;;;;;;;;;4.75;3.00;;;;;23.04;42.68;102248.66;5055447;28;45481;-66
2021/10/27 04:27:16;;;;;;;;;4.50;3.50;;;;;22.94;42.85;102229.31;5054801;28;45399;-65
2021/10/27 04:29:42;;;;;;;;;2.75;2.75;;;;;23.03;42.72;102246.97;5070106;28;47133;-66
2021/10/27 04:32:08;;;;;;;;;2.00;2.00;;;;;22.93;42.94;102224.97;5054332;28;45667;-65
2021/10/27 04:34:33;;;;;;;;;4.25;1.50;;;;;23.03;43.18;102252.28;5054876;28;45214;-66
2021/10/27 04:36:59;;;;;;;;;3.25;3.25;;;;;23.03;42.88;102264.75;5055252;28;45388;-66
2021/10/27 04:39:24;;;;;;;;;5.50;5.00;;;;;23.01;43.21;102251.59;5054085;28;45394;-65
2021/10/27 04:41:50;;;;;;;;;5.75;3.00;;;;;23.03;43.14;102259.44;5054486;28;45260;-66
2021/10/27 04:44:15;;;;;;;;;5.50;4.00;;;;;23.02;43.33;102261.25;5054671;28;45506;-66
2021/10/27 04:46:40;;;;;;;;;2.00;2.00;;;;;23.03;43.22;102262.09;5054402;28;45462;-65
2021/10/27 04:49:06;;;;;;;;;4.25;3.00;;;;;23.01;43.27;102259.56;5053612;28;46877;-66
2021/10/27 04:51:31;;;;;;;;;6.00;4.25;;;;;23.02;43.28;102263.91;5054243;28;45248;-66
2021/10/27 04:53:56;;;;;;;;;3.00;3.00;;;;;23.02;42.61;102265.72;5054570;28;45363;-66
2021/10/27 04:56:22;;;;;;;;;1.00;1.00;;;;;23.01;43.27;102264.88;5054381;28;45271;-66
2021/10/27 04:58:47;;;;;;;;;3.00;3.00;;;;;23.00;43.16;102255.25;5052779;28;46892;-66
2021/10/27 05:01:12;;;;;;;;;4.00;3.25;;;;;23.01;43.05;102254.25;5054387;28;45369;-65
2021/10/27 05:03:38;;;;;;;;;3.25;2.25;;;;;23.01;43.16;102250.75;5053400;28;45281;-66
2021/10/27 05:06:04;;;;;;;;;2.50;2.00;;;;;22.94;43.23;102238.13;5054309;28;45501;-66
2021/10/27 05:08:32;;;;;;;;;4.75;3.25;;;;;23.00;43.16;102246.44;5053887;28;46238;-66
2021/10/27 05:10:58;;;;;;;;;4.75;4.00;;;;;22.97;43.33;102229.00;5054091;28;45462;-66
2021/10/27 05:13:23;;;;;;;;;3.00;3.00;;;;;23.00;43.19;102234.03;5054517;28;45354;-65
2021/10/27 05:15:49;;;;;;;;;5.00;3.25;;;;;23.01;43.25;102237.50;5054272;28;45466;-65
2021/10/27 05:18:16;;;;;;;;;3.50;3.00;;;;;23.01;42.60;102234.84;5056638;28;46481;-65
2021/10/27 05:20:42;;;;;;;;;3.00;3.00;;;;;22.93;42.82;102223.16;5057559;28;45415;-66
2021/10/27 05:23:07;;;;;;;;;3.00;3.00;;;;;23.01;42.55;102238.31;5057592;28;45606;-66
2021/10/27 05:25:33;;;;;;;;;2.25;2.25;;;;;23.02;43.19;102247.13;5057639;28;45407;-66
2021/10/27 05:27:58;;;;;;;;;3.00;3.00;;;;;23.02;43.03;102245.31;5057961;28;46018;-66
2021/10/27 05:30:24;;;;;;;;;2.50;2.50;;;;;23.00;42.59;102234.03;5056784;28;45420;-66
2021/10/27 05:32:54;;;;;;;;;2.25;2.00;;;;;23.03;42.54;102233.69;5056921;28;45417;-66
2021/10/27 05:35:19;;;;;;;;;2.25;2.25;;;;;23.03;42.37;102233.69;5057373;28;45426;-66
2021/10/27 05:37:45;;;;;;;;;3.00;3.00;;;;;23.03;42.39;102219.63;5057115;28;46935;-66
2021/10/27 05:40:11;;;;;;;;;3.25;3.25;;;;;23.01;42.65;102217.09;5058044;28;45203;-66
2021/10/27 05:42:39;;;;;;;;;2.00;2.00;;;;;22.93;42.58;102203.75;5057330;28;45464;-66
2021/10/27 05:45:05;;;;;;;;;3.50;3.50;;;;;23.03;42.87;102222.28;5056618;28;45529;-66
2021/10/27 05:47:30;;;;;;;;;4.75;3.50;;;;;23.03;43.03;102214.31;5056822;28;45355;-66
2021/10/27 05:50:21;;;;;;;;;3.50;2.75;;;;;23.02;42.53;102231.19;5057169;28;45485;-66
2021/10/27 05:55:28;;;;;;;;;5.00;3.50;;;;;23.03;42.35;102224.91;5055357;28;45234;-66
2021/10/27 05:57:55;;;;;;;;;4.00;4.00;;;;;23.03;42.98;102222.28;5055302;28;46190;-66
2021/10/27 06:00:20;;;;;;;;;3.25;2.25;;;;;22.96;42.47;102214.91;5056414;28;45312;-66
2021/10/27 06:02:46;;;;;;;;;3.00;3.00;;;;;23.02;43.11;102223.25;5056981;28;45594;-65
2021/10/27 06:05:11;;;;;;;;;3.00;3.00;;;;;23.01;42.63;102217.09;5056948;28;45316;-66
2021/10/27 06:07:38;;;;;;;;;3.00;3.00;;;;;22.90;42.96;102201.44;5056778;28;45800;-66
2021/10/27 06:10:04;;;;;;;;;2.00;2.00;;;;;23.01;42.64;102218.91;5057422;28;45415;-65
2021/10/27 06:12:29;;;;;;;;;3.50;3.50;;;;;23.01;43.07;102222.41;5056459;28;45312;-66
2021/10/27 06:14:55;;;;;;;;;2.50;2.25;;;;;23.00;43.09;102222.56;5056253;28;45482;-65
2021/10/27 06:17:21;;;;;;;;;3.00;3.00;;;;;22.96;42.99;102222.88;5056728;28;45400;-65
2021/10/27 06:19:47;;;;;;;;;2.75;2.50;;;;;23.00;42.60;102222.56;5056057;28;45346;-65
2021/10/27 06:22:12;;;;;;;;;3.00;3.00;;;;;23.00;42.72;102227.88;5056948;28;45389;-65
2021/10/27 06:24:40;;;;;;;;;4.00;3.00;;;;;22.99;42.60;102219.06;5054053;28;45332;-66
2021/10/27 06:27:05;;;;;;;;;4.00;3.00;;;;;22.99;42.97;102229.69;5045432;28;45686;-65
2021/10/27 06:29:40;;;;;;;;;3.00;3.00;;;;;22.99;43.06;102229.69;5046544;28;45344;-66
2021/10/27 06:34:40;;;;;;;;;2.75;2.00;;;;;23.00;43.08;102238.50;5046120;28;45455;-65
2021/10/27 06:37:25;;;;;;;;;4.00;3.00;;;;;23.00;43.01;102236.69;5049578;28;45305;-65
2021/10/27 06:47:47;;;;;;;;;2.75;2.75;;;;;23.01;43.21;102246.28;5051961;28;45796;-64
2021/10/27 06:50:13;;;;;;;;;3.75;3.75;;;;;23.02;43.14;102245.31;5048099;28;45390;-65
2021/10/27 06:52:39;;;;;;;;;3.00;3.00;;;;;23.02;42.98;102252.44;5048714;28;45457;-65
2021/10/27 06:55:05;;;;;;;;;3.50;3.00;;;;;23.03;42.77;102254.94;5046146;28;45450;-65
2021/10/27 06:57:31;;;;;;;;;4.25;3.00;;;;;23.03;42.71;102252.28;5054764;28;45406;-65
2021/10/27 07:00:03;;;;;;;;;5.75;4.00;;;;;23.05;43.40;102252.13;5050493;28;45804;-65
2021/10/27 07:16:06;;;;;;;;;2.00;2.00;;;;;23.03;43.20;102265.53;5055989;28;45311;-64
2021/10/27 07:18:32;;;;;;;;;3.25;2.50;;;;;23.06;42.70;102267.91;5055375;28;47195;-65
2021/10/27 07:20:57;;;;;;;;;5.25;3.25;;;;;23.00;43.16;102260.56;5055355;28;45474;-65
2021/10/27 07:23:23;;;;;;;;;2.25;2.25;;;;;23.05;42.67;102266.25;5055639;28;45190;-65
2021/10/27 07:25:56;;;;;;;;;3.00;3.00;;;;;23.06;43.21;102272.38;5055576;28;45239;-65
2021/10/27 07:28:22;;;;;;;;;2.75;2.75;;;;;22.96;43.40;102264.50;5054971;28;46060;-65
2021/10/27 07:30:48;;;;;;;;;2.50;2.50;;;;;23.05;43.33;102274.22;5055841;28;45439;-64
2021/10/27 07:33:14;;;;;;;;;4.25;3.50;;;;;23.02;43.22;102265.72;5054355;28;45499;-64
2021/10/27 07:35:55;;;;;;;;;5.50;3.00;;;;;23.07;42.78;102282.00;5055341;28;45351;-64
2021/10/27 07:41:06;;;;;;;;;4.00;3.00;;;;;23.05;42.58;102282.19;5054234;28;45506;-64
2021/10/27 07:43:32;;;;;;;;;2.50;2.50;;;;;23.06;43.06;102285.66;5055309;28;45467;-65
2021/10/27 07:45:59;;;;;;;;;3.50;2.75;;;;;23.06;43.16;102294.44;5055933;28;45456;-65
2021/10/27 07:48:25;;;;;;;;;3.25;3.25;;;;;23.06;42.59;102293.59;5054354;28;45331;-65
2021/10/27 07:50:51;;;;;;;;;3.00;3.00;;;;;23.04;43.02;102287.63;5055028;28;45363;-64
2021/10/27 07:53:17;;;;;;;;;4.25;3.75;;;;;23.06;42.75;102290.94;5055068;28;45434;-64
2021/10/27 07:55:49;;;;;;;;;3.25;3.25;;;;;23.01;42.75;102283.44;5054850;28;45425;-65
2021/10/27 07:58:16;;;;;;;;;3.50;3.25;;;;;23.02;42.73;102279.81;5051815;28;46236;-64
2021/10/27 08:00:42;;;;;;;;;4.00;4.00;;;;;23.04;43.12;102288.47;5055423;28;45336;-65
2021/10/27 08:03:08;;;;;;;;;3.00;3.00;;;;;22.95;42.56;102273.47;5054651;28;45549;-65
2021/10/27 08:05:40;;;;;;;;;4.00;3.00;;;;;22.99;42.70;102282.78;5054806;28;45367;-65
2021/10/27 08:08:07;;;;;;;;;2.25;2.25;;;;;22.96;42.65;102269.81;5054781;28;45349;-64
2021/10/27 08:10:33;;;;;;;;;3.00;3.00;;;;;23.05;43.24;102284.84;5054508;28;45257;-65
2021/10/27 08:12:59;;;;;;;;;2.00;2.00;;;;;23.05;42.93;102286.66;5055353;28;45465;-65
2021/10/27 08:15:26;;;;;;;;;3.00;3.00;;;;;23.06;43.23;102290.94;5054819;28;45477;-65
2021/10/27 08:17:52;;;;;;;;;4.25;2.50;;;;;23.04;43.12;102285.81;5054114;28;47546;-65
2021/10/27 08:20:21;;;;;;;;;1.50;1.50;;;;;23.07;43.22;102290.81;5054840;28;45292;-64
2021/10/27 08:22:52;;;;;;;;;1.00;1.00;;;;;23.07;43.25;102287.31;5070617;28;45521;-65
2021/10/27 08:25:22;;;;;;;;;2.75;2.75;;;;;23.09;42.76;102288.00;5054906;28;45404;-65
2021/10/27 08:27:49;;;;;;;;;2.00;2.00;;;;;23.10;43.17;102295.00;5054448;28;47047;-64
2021/10/27 08:30:17;;;;;;;;;2.75;2.75;;;;;23.10;42.98;102287.03;5054482;28;45397;-64
2021/10/27 08:32:50;;;;;;;;;3.00;3.00;;;;;23.12;42.54;102289.53;5054463;28;45347;-64
2021/10/27 08:35:17;;;;;;;;;2.50;2.50;;;;;23.10;43.00;102280.88;5054459;28;45494;-64
2021/10/27 08:37:45;;;;;;;;;4.25;2.50;;;;;23.13;43.14;102288.53;5054521;28;45667;-65
2021/10/27 08:40:11;;;;;;;;;3.25;3.25;;;;;23.13;43.12;102291.19;5044305;28;45502;-64
2021/10/27 08:42:36;;;;;;;;;2.00;2.00;;;;;23.13;43.06;102289.38;5049644;28;45594;-64
2021/10/27 08:45:02;;;;;;;;;3.00;2.00;;;;;23.13;42.91;102289.38;5054502;28;45370;-64
2021/10/27 08:47:28;;;;;;;;;3.00;3.00;;;;;23.14;42.55;102298.16;5054221;28;46039;-65
2021/10/27 08:49:55;;;;;;;;;2.00;2.00;;;;;23.16;42.73;102298.88;5048138;28;45313;-65
2021/10/27 08:52:21;;;;;;;;;3.25;3.25;;;;;23.07;42.94;102287.31;5048044;28;45367;-65
2021/10/27 08:54:46;;;;;;;;;3.50;2.50;;;;;23.07;43.02;102297.94;5042244;28;45414;-65
2021/10/27 08:57:12;;;;;;;;;4.00;3.25;;;;;23.16;42.98;102298.88;5053634;28;46321;-65
2021/10/27 09:38:44;;;;;;;;;3.00;2.00;;;;;23.14;42.53;102284.88;4994711;28;45355;-64
2021/10/27 10:05:12;;;;;;;;;2.75;2.75;;;;;23.18;42.44;102267.69;5052352;28;45470;-66
2021/10/27 10:07:38;;;;;;;;;2.75;2.75;;;;;23.17;42.49;102260.69;5055610;28;45408;-65
2021/10/27 10:10:06;;;;;;;;;3.25;2.75;;;;;23.21;42.61;102271.84;5057349;28;45284;-65
2021/10/27 10:12:37;;;;;;;;;1.00;1.00;;;;;23.21;42.72;102266.53;5056218;28;46937;-66
2021/10/27 10:15:04;;;;;;;;;2.25;2.25;;;;;23.16;42.79;102262.50;5056546;28;45479;-65
2021/10/27 10:17:32;;;;;;;;;2.00;2.00;;;;;23.22;42.90;102273.50;5056662;28;45571;-65
2021/10/27 10:19:59;;;;;;;;;3.50;3.50;;;;;23.23;42.52;102260.09;5055525;28;45448;-66
2021/10/27 10:22:33;;;;;;;;;2.25;2.25;;;;;23.20;42.40;102255.06;5056019;28;46066;-65
2021/10/27 10:25:24;;;;;;;;;4.50;2.25;;;;;23.26;42.78;102264.25;5055668;28;45259;-65
2021/10/27 10:27:51;;;;;;;;;3.00;2.25;;;;;23.25;42.42;102273.19;5056531;28;45428;-65
2021/10/27 10:30:29;;;;;;;;;5.00;2.75;;;;;23.27;42.45;102263.25;5056281;28;45426;-65
2021/10/27 10:33:05;;;;;;;;;2.75;2.50;;;;;23.29;42.89;102264.75;5055869;28;46913;-66
2021/10/27 10:35:41;;;;;;;;;3.00;2.00;;;;;23.28;42.92;102262.28;5055860;28;45344;-65
2021/10/27 10:38:29;;;;;;;;;2.00;2.00;;;;;23.28;42.50;102260.47;5056385;28;45450;-65
2021/10/27 11:26:13;;;;;;;;;3.00;2.00;;;;;23.21;42.93;102205.47;5054020;28;46029;-65
2021/10/27 11:37:34;;;;;;;;;4.25;2.00;;;;;23.41;42.85;102214.06;5052682;28;45436;-64
2021/10/27 11:40:14;;;;;;;;;1.25;1.25;;;;;23.41;42.53;102211.41;5048090;28;47290;-65
2021/10/27 11:42:58;;;;;;;;;1.00;1.00;;;;;23.43;41.76;102212.06;5049603;28;45509;-65
2021/10/27 11:48:00;;;;;;;;;2.00;2.00;;;;;23.24;41.61;102213.09;5047980;28;45408;-65
2021/10/27 11:50:34;;;;;;;;;1.25;1.25;;;;;23.10;41.87;102202.06;5048280;28;46390;-65
2021/10/27 11:53:02;;;;;;;;;1.00;1.00;;;;;22.99;41.31;102203.16;5050391;28;45487;-63
2021/10/27 11:55:30;;;;;;;;;4.25;3.00;;;;;22.97;41.77;102205.13;5051004;28;45340;-63
2021/10/27 11:57:56;;;;;;;;;3.00;2.00;;;;;23.01;41.88;102200.31;5048428;28;45625;-63
2021/10/27 12:00:32;;;;;;;;;4.00;1.25;;;;;23.05;42.62;102188.44;5050438;28;45463;-65
2021/10/27 12:05:58;;;;;;;;;2.00;1.75;;;;;23.14;42.49;102189.31;5054529;28;45265;-65
2021/10/27 12:08:41;;;;;;;;;1.75;1.00;;;;;23.17;42.32;102186.34;5053232;28;45287;-65
2021/10/27 12:14:14;;;;;;;;;3.75;3.00;;;;;23.19;42.41;102179.06;5038660;28;45467;-65
2021/10/27 12:19:17;;;;;;;;;3.00;2.00;;;;;23.26;42.47;102179.28;5055337;28;45441;-65
2021/10/27 12:22:00;;;;;;;;;3.25;2.00;;;;;23.26;42.60;102174.78;5053649;28;46263;-65
2021/10/27 12:24:29;;;;;;;;;2.75;2.75;;;;;23.27;42.45;102168.50;5053279;28;45446;-65
2021/10/27 12:27:08;;;;;;;;;2.00;1.00;;;;;23.28;42.54;102164.88;5055945;28;45744;-65
2021/10/27 12:29:38;;;;;;;;;1.50;1.50;;;;;23.32;42.38;102159.22;5057511;28;45632;-65
2021/10/27 12:32:15;;;;;;;;;2.00;2.00;;;;;23.32;42.02;102159.22;5056881;28;46533;-65
2021/10/27 12:34:47;;;;;;;;;1.25;1.25;;;;;23.25;42.08;102143.94;5057823;28;45566;-65
2021/10/27 12:37:20;;;;;;;;;2.00;2.00;;;;;23.33;42.46;102147.63;5054826;28;45337;-65
2021/10/27 12:39:46;;;;;;;;;3.00;3.00;;;;;23.34;42.00;102147.44;5057407;28;45409;-65
2021/10/27 12:42:13;;;;;;;;;1.75;1.75;;;;;23.33;41.97;102145.81;5057490;28;45413;-65
2021/10/27 12:44:50;;;;;;;;;2.00;2.00;;;;;23.34;41.93;102133.34;5057793;28;45473;-65
2021/10/27 12:47:28;;;;;;;;;3.00;1.00;;;;;23.32;42.20;102130.84;5057520;28;45497;-65
2021/10/27 12:50:19;;;;;;;;;3.25;1.50;;;;;23.34;42.49;102128.84;5042989;28;45467;-64
2021/10/27 12:53:06;;;;;;;;;1.75;1.75;;;;;23.34;42.24;102115.56;5042089;28;47001;-65
2021/10/27 12:55:38;;;;;;;;;4.00;2.00;;;;;23.34;42.29;102115.56;5057835;28;45444;-64
2021/10/27 12:58:13;;;;;;;;;2.00;2.00;;;;;23.21;42.47;102091.31;5058436;28;45471;-64
2021/10/27 13:11:36;;;;;;;;;1.00;1.00;;;;;23.35;42.26;102098.66;5056540;28;45364;-65
2021/10/27 13:19:17;;;;;;;;;2.75;2.00;;;;;23.36;42.49;102087.06;5057456;28;45256;-65
2021/10/27 13:31:59;;;;;;;;;2.00;2.00;;;;;23.37;42.46;102067.47;5057228;28;45507;-64
2021/10/27 13:34:24;;;;;;;;;2.00;1.00;;;;;23.37;42.63;102061.31;5057166;28;46410;-64
2021/10/27 13:36:51;;;;;;;;;2.00;2.00;;;;;23.36;42.60;102068.47;5057404;28;45399;-63
2021/10/27 13:39:17;;;;;;;;;1.75;1.50;;;;;23.36;42.59;102060.50;5048186;28;45385;-66
2021/10/27 13:41:47;;;;;;;;;2.00;2.00;;;;;23.36;42.47;102057.00;5049254;28;45451;-64
2021/10/27 13:44:17;;;;;;;;;1.00;1.00;;;;;23.36;42.59;102067.63;5056799;28;47411;-66
2021/10/27 13:58:00;;;;;;;;;3.00;3.00;;;;;23.36;42.74;102049.03;5056565;28;45455;-64
2021/10/27 14:06:09;;;;;;;;;4.75;2.00;;;;;23.29;42.79;102023.13;5048922;28;45789;-64
2021/10/27 14:09:00;;;;;;;;;2.50;2.50;;;;;23.27;42.29;102027.75;5049116;28;45283;-61
2021/10/27 14:14:03;;;;;;;;;3.00;3.00;;;;;23.34;42.33;102035.91;5056047;28;45370;-64
2021/10/27 15:20:56;;;;;;;;;2.25;2.25;;;;;23.34;42.91;101979.34;5055499;28;45905;-64
2021/10/27 15:23:32;;;;;;;;;2.00;2.00;;;;;23.25;43.17;101965.19;5055408;28;45699;-63
2021/10/27 15:31:24;;;;;;;;;3.00;2.00;;;;;23.33;43.03;101959.06;5054617;28;45459;-63
2021/10/27 15:36:56;;;;;;;;;4.00;4.00;;;;;23.33;42.88;101967.88;4993637;28;45492;-64
2021/10/27 15:52:44;;;;;;;;;4.00;3.25;;;;;23.29;42.82;101956.72;4915543;28;45388;-65
2021/10/27 15:55:10;;;;;;;;;3.00;3.00;;;;;23.24;42.98;101948.44;4926415;28;45461;-65
2021/10/27 15:57:35;;;;;;;;;3.00;3.00;;;;;23.31;43.05;101953.09;4930656;28;45391;-65
2021/10/27 16:00:01;;;;;;;;;3.75;3.75;;;;;23.20;43.24;101943.59;4930312;28;45474;-65
2021/10/27 16:02:26;;;;;;;;;3.75;3.75;;;;;23.31;42.90;101950.44;4930206;28;46026;-65
2021/10/27 16:04:53;;;;;;;;;4.00;2.25;;;;;23.29;43.29;101942.63;4930375;28;45407;-65
2021/10/27 16:07:19;;;;;;;;;3.50;2.00;;;;;23.31;43.59;101950.44;4934589;28;45367;-65
2021/10/27 16:09:48;;;;;;;;;3.25;3.00;;;;;23.31;43.58;101950.44;4931104;28;45352;-65
2021/10/27 16:12:14;;;;;;;;;2.50;2.50;;;;;23.31;43.64;101951.28;4929948;28;46953;-64
2021/10/27 16:14:40;;;;;;;;;3.25;3.00;;;;;23.21;43.16;101935.50;4983976;28;45518;-65
2021/10/27 16:17:06;;;;;;;;;4.75;3.00;;;;;23.33;43.21;101959.91;4976152;28;45461;-65